Aspen, CO

3:42 PM MDT on June 02, 2015 (GMT -0600)
Pitkin County Government Offices | | Change Station
CLOSE
Current Station
Personal Weather Station
Location: Aspen, CO
Elevation: 7917 ft
Nearby Weather Stations

Elev 7917 ft 39.19 °N, 106.82 °W | Updated 29 seconds ago

Clear
Clear
77.9 °F
Feels Like 77 °F
N
2.9
Wind Variable Wind from WNW
Gusts 8.0 mph

Today
High -- | Low -- °F
--% Chance of Precip.
Yesterday
High -- | Low -- °F
Precip. -- in
5:42 AM 8:28 PM
Full, 100% visible
Pressure 29.78 in
Visibility 10.0 miles
Clouds Clear
Heat Index 77 °F
Dew Point 23 °F
Humidity 13%
Rainfall 0.00 in
Snow Depth Not available.
UV 4.9 out of 12
Pollen 8.30 out of 12
Air Quality Not available.
Flu Activity Sporadic
METAR KASE 022053Z VRB06G16KT 10SM CLR 23/M04 A3014 RMK AO2 SLP083 T02281044 56012

More Conditions Fewer Conditions

Pressure 29.78 in
Visibility 10.0 miles
Clouds Clear
Heat Index 77 °F
Dew Point 23 °F
Humidity 13%
Rainfall 0.00 in
Snow Depth Not available.
UV 4.9 out of 12
Pollen 8.30 out of 12
Air Quality Not available.
Flu Activity Sporadic
METAR KASE 022053Z VRB06G16KT 10SM CLR 23/M04 A3014 RMK AO2 SLP083 T02281044 56012

More Conditions Fewer Conditions

10-Day Weather Forecast

×

Almanac

Astronomy

Jun. 02, 2015 Rise Set
Actual Time
Civil Twilight
Nautical Twilight
Astronomical Twilight
Moon
Length of Visible Light
Length of Day
Tomorrow will be .
, % of the Moon is Illuminated

Today's Extremes

State Highs State Lows

Community

WunderPhotos

Upload Photos

1,826,032 photos uploaded!

WunderBlogs® & News

Nearby

Air Quality

  Air Quality AQ Index Pollutant
Not available.

Snow Depth

Station Depth Elevation

Earthquake Activity

City Distance Mag. Time & Date
Minimum magnitude displayed is 2.5.

Coastal Water Temperatures

Place Temperature

Stations

Nearby Weather Stations

Station Location Temp. Windchill Dew Point Humidity Wind Precip. Elev Updated Type